Greenspond, Canada
Current Conditions -  °F | °C
As of 12:23 PM on Saturday 25 Oct 2014 (Local Time) from CYQX Reporting Station
Light Rain Light Rain  
Wind Chill: 34°   Ceiling: 600
Heat Index: 43°   Visibility: 4mi
Dew Point: 41°   Wind: 22mph
Humidity: 93%   Direction: 60°ENE
Pressure: 29.54"   Gusts: 37mph
Location:  49.05°N, 53.58°W
Report Text: CYQX 251423Z 06019G32KT 4SM -RA BR BKN006 OVC011 06/05 A2954 RMK SF7SC1 SLP009
Loading
Personal Weather Stations






























Interactive Weather Map
Tropical Storm Tracking
New forecast layout! Learn more

10-Day Weather Forecast

Advertisements
Track Severe Weather on mobile